Time;durP1;ratioP1;P1;durP2;ratioP2;P2;SDS_P1;SDS_P2;PMS_P1;PMS_P2;Temp;Humidity;BMP_temperature;BMP_pressure;BME280_temperature;BME280_humidity;BME280_pressure;Samples;Min_cycle;Max_cycle;Signal;HPM_P1;HPM_P2
2024/03/01 00:01:34;;;;;;;27.75;11.10;;;;;;;;;;5069020;28;20115;-61
2024/03/01 00:04:00;;;;;;;31.77;9.65;;;;;;;;;;5063259;28;20461;-62
2024/03/01 00:06:26;;;;;;;23.83;8.77;;;;;;;;;;5069730;28;20028;-61
2024/03/01 00:08:52;;;;;;;22.77;10.13;;;;;;;;;;5073170;28;20025;-61
2024/03/01 00:11:18;;;;;;;25.10;10.80;;;;;;;;;;5064361;28;20083;-59
2024/03/01 00:13:44;;;;;;;26.40;10.63;;;;;;;;;;5066538;28;20029;-61
2024/03/01 00:16:10;;;;;;;32.25;11.90;;;;;;;;;;5075408;28;20025;-61
2024/03/01 00:18:36;;;;;;;22.75;9.77;;;;;;;;;;5066280;28;20027;-62
2024/03/01 00:21:02;;;;;;;25.63;10.40;;;;;;;;;;5064497;28;20044;-61
2024/03/01 00:23:28;;;;;;;24.25;9.70;;;;;;;;;;5070613;28;20039;-62
2024/03/01 00:25:54;;;;;;;31.13;10.27;;;;;;;;;;5066874;28;20032;-59
2024/03/01 00:28:20;;;;;;;25.63;10.25;;;;;;;;;;5070216;28;20741;-60
2024/03/01 00:30:46;;;;;;;23.88;9.77;;;;;;;;;;5067665;28;20446;-61
2024/03/01 00:33:13;;;;;;;27.60;9.32;;;;;;;;;;5073761;28;20032;-61
2024/03/01 00:35:39;;;;;;;29.10;10.77;;;;;;;;;;5067210;28;20031;-62
2024/03/01 00:38:05;;;;;;;31.67;11.23;;;;;;;;;;5070211;28;20037;-61
2024/03/01 00:40:31;;;;;;;26.88;9.10;;;;;;;;;;5074217;28;20030;-62
2024/03/01 00:42:57;;;;;;;21.80;9.60;;;;;;;;;;5073755;28;20150;-62
2024/03/01 00:45:23;;;;;;;28.48;10.60;;;;;;;;;;5057405;28;20056;-60
2024/03/01 00:47:50;;;;;;;25.25;9.82;;;;;;;;;;5068223;28;20031;-61
2024/03/01 00:50:16;;;;;;;28.40;11.27;;;;;;;;;;5067592;28;20028;-60
2024/03/01 00:52:43;;;;;;;28.73;11.13;;;;;;;;;;5081502;28;20037;-62
2024/03/01 00:55:09;;;;;;;26.80;10.60;;;;;;;;;;5072834;28;20103;-61
2024/03/01 00:57:35;;;;;;;19.00;9.35;;;;;;;;;;5065204;28;20112;-61
2024/03/01 01:00:01;;;;;;;28.52;10.85;;;;;;;;;;5050441;28;20037;-61
2024/03/01 01:02:27;;;;;;;34.10;11.63;;;;;;;;;;5071499;28;20028;-60
2024/03/01 01:04:53;;;;;;;26.98;10.70;;;;;;;;;;5070243;28;20422;-61
2024/03/01 01:07:19;;;;;;;26.33;11.10;;;;;;;;;;5063629;28;20520;-58
2024/03/01 01:09:45;;;;;;;32.88;10.50;;;;;;;;;;5064988;28;20485;-60
2024/03/01 01:12:11;;;;;;;20.50;9.10;;;;;;;;;;5059260;28;20086;-61
2024/03/01 01:14:37;;;;;;;22.85;10.82;;;;;;;;;;5063212;28;20505;-61
2024/03/01 01:17:03;;;;;;;29.15;10.57;;;;;;;;;;5064612;28;20025;-62
2024/03/01 01:19:29;;;;;;;25.88;9.75;;;;;;;;;;5066945;28;20097;-62
2024/03/01 01:21:56;;;;;;;23.92;9.60;;;;;;;;;;5077955;28;20033;-61
2024/03/01 01:24:22;;;;;;;24.67;9.82;;;;;;;;;;5065511;28;20024;-60
2024/03/01 01:26:48;;;;;;;18.60;8.20;;;;;;;;;;5069328;28;20052;-62
2024/03/01 01:29:13;;;;;;;27.00;9.98;;;;;;;;;;5068247;28;20028;-61
2024/03/01 01:31:39;;;;;;;26.17;11.48;;;;;;;;;;5069376;28;20510;-61
2024/03/01 01:34:05;;;;;;;33.08;11.88;;;;;;;;;;5069890;28;20433;-61
2024/03/01 01:36:31;;;;;;;24.58;10.32;;;;;;;;;;5064565;28;20078;-61
2024/03/01 01:38:57;;;;;;;31.70;11.18;;;;;;;;;;5067799;28;20024;-61
2024/03/01 01:41:23;;;;;;;26.73;10.90;;;;;;;;;;5064477;28;20539;-61
2024/03/01 01:43:49;;;;;;;26.25;10.32;;;;;;;;;;5071073;28;20032;-61
2024/03/01 01:46:16;;;;;;;30.38;10.68;;;;;;;;;;5054617;28;20031;-60
2024/03/01 01:48:43;;;;;;;29.08;11.23;;;;;;;;;;5067622;28;20032;-61
2024/03/01 01:51:09;;;;;;;27.83;10.82;;;;;;;;;;5064847;28;20040;-60
2024/03/01 01:53:36;;;;;;;28.27;10.75;;;;;;;;;;5069152;28;20033;-60
2024/03/01 01:56:02;;;;;;;34.03;11.93;;;;;;;;;;5069014;28;20122;-61
2024/03/01 01:58:29;;;;;;;34.03;10.60;;;;;;;;;;5069391;28;20039;-61
2024/03/01 02:00:56;;;;;;;23.45;9.93;;;;;;;;;;5060531;28;20494;-62
2024/03/01 02:03:22;;;;;;;24.85;10.57;;;;;;;;;;5066021;28;20025;-62
2024/03/01 02:05:48;;;;;;;28.48;10.80;;;;;;;;;;5061948;28;20032;-62
2024/03/01 02:08:14;;;;;;;33.30;11.52;;;;;;;;;;5066470;28;20107;-60
2024/03/01 02:10:40;;;;;;;33.00;10.80;;;;;;;;;;5071148;28;20055;-61
2024/03/01 02:13:06;;;;;;;26.50;9.75;;;;;;;;;;5068239;28;20068;-60
2024/03/01 02:15:32;;;;;;;26.45;10.18;;;;;;;;;;5067997;28;20457;-60
2024/03/01 02:17:58;;;;;;;27.77;11.40;;;;;;;;;;5074646;28;20032;-60
2024/03/01 02:20:25;;;;;;;38.78;10.48;;;;;;;;;;5077617;28;20504;-61
2024/03/01 02:22:58;;;;;;;25.15;10.35;;;;;;;;;;5069771;28;20375;-60
2024/03/01 02:25:24;;;;;;;23.80;9.25;;;;;;;;;;5067659;28;20504;-61
2024/03/01 02:27:50;;;;;;;34.00;11.48;;;;;;;;;;5070934;28;20425;-61
2024/03/01 02:30:16;;;;;;;36.05;10.98;;;;;;;;;;5067444;28;20070;-61
2024/03/01 02:32:42;;;;;;;28.13;11.77;;;;;;;;;;5070202;28;20460;-61
2024/03/01 02:35:08;;;;;;;36.08;11.85;;;;;;;;;;5072585;28;20024;-61
2024/03/01 02:37:34;;;;;;;29.52;10.35;;;;;;;;;;5071974;28;20056;-61
2024/03/01 02:40:00;;;;;;;27.67;11.15;;;;;;;;;;5056112;28;20040;-59
2024/03/01 02:42:26;;;;;;;24.05;9.48;;;;;;;;;;5068367;28;20024;-61
2024/03/01 02:44:53;;;;;;;29.27;9.82;;;;;;;;;;5068329;28;20094;-61
2024/03/01 02:47:19;;;;;;;25.13;10.20;;;;;;;;;;5069207;28;20029;-61
2024/03/01 02:49:45;;;;;;;27.92;10.85;;;;;;;;;;5068442;28;20027;-61
2024/03/01 02:52:10;;;;;;;29.60;10.90;;;;;;;;;;5073324;28;20017;-60
2024/03/01 02:54:36;;;;;;;26.23;10.15;;;;;;;;;;5069668;28;20033;-62
2024/03/01 02:57:03;;;;;;;30.00;10.40;;;;;;;;;;5068195;28;20032;-62
2024/03/01 02:59:30;;;;;;;26.00;10.50;;;;;;;;;;5072790;28;20029;-62
2024/03/01 03:01:56;;;;;;;29.33;11.73;;;;;;;;;;5064894;28;20529;-61
2024/03/01 03:04:22;;;;;;;26.08;10.70;;;;;;;;;;5069974;28;20032;-61
2024/03/01 03:06:47;;;;;;;26.30;9.98;;;;;;;;;;5074452;28;20107;-61
2024/03/01 03:09:13;;;;;;;24.02;9.85;;;;;;;;;;5070527;28;20127;-61
2024/03/01 03:11:39;;;;;;;28.73;8.90;;;;;;;;;;5067619;28;20056;-60
2024/03/01 03:14:05;;;;;;;28.77;10.35;;;;;;;;;;5075147;28;20043;-61
2024/03/01 03:16:31;;;;;;;26.38;10.45;;;;;;;;;;5068157;28;20024;-61
2024/03/01 03:18:57;;;;;;;27.45;9.63;;;;;;;;;;5074330;28;20025;-61
2024/03/01 03:21:23;;;;;;;24.67;10.13;;;;;;;;;;5068196;28;20017;-60
2024/03/01 03:23:49;;;;;;;25.77;10.10;;;;;;;;;;5069954;28;20398;-61
2024/03/01 03:26:15;;;;;;;28.45;9.85;;;;;;;;;;5063383;28;20106;-61
2024/03/01 03:28:41;;;;;;;20.20;9.13;;;;;;;;;;5072059;28;20092;-61
2024/03/01 03:31:07;;;;;;;24.42;9.27;;;;;;;;;;5074280;28;20090;-61
2024/03/01 03:33:33;;;;;;;24.52;10.32;;;;;;;;;;5071735;28;20033;-61
2024/03/01 03:35:59;;;;;;;27.75;10.50;;;;;;;;;;5065847;28;20037;-61
2024/03/01 03:38:25;;;;;;;25.13;8.60;;;;;;;;;;5069315;28;20021;-61
2024/03/01 03:40:51;;;;;;;25.55;8.77;;;;;;;;;;5066275;28;20513;-61
2024/03/01 03:43:17;;;;;;;21.90;9.10;;;;;;;;;;5068369;28;20025;-61
2024/03/01 03:45:43;;;;;;;22.48;9.05;;;;;;;;;;5069702;28;20035;-60
2024/03/01 03:48:09;;;;;;;18.63;8.30;;;;;;;;;;5071882;28;20175;-60
2024/03/01 03:50:35;;;;;;;22.83;9.35;;;;;;;;;;5073883;28;20028;-61
2024/03/01 03:53:01;;;;;;;22.58;7.68;;;;;;;;;;5071652;28;20043;-61
2024/03/01 03:55:28;;;;;;;22.25;9.18;;;;;;;;;;5068959;28;20020;-60
2024/03/01 03:57:54;;;;;;;21.45;8.82;;;;;;;;;;5066699;28;20024;-61
2024/03/01 04:00:20;;;;;;;24.58;8.00;;;;;;;;;;5069452;28;20024;-59
2024/03/01 04:02:46;;;;;;;22.83;9.07;;;;;;;;;;5048416;28;20028;-59
2024/03/01 04:05:12;;;;;;;28.10;10.63;;;;;;;;;;5069002;28;20032;-58
2024/03/01 04:07:38;;;;;;;27.15;9.35;;;;;;;;;;5066388;28;20032;-61
2024/03/01 04:10:09;;;;;;;22.77;8.82;;;;;;;;;;5067718;28;20033;-60
2024/03/01 04:12:36;;;;;;;24.13;9.00;;;;;;;;;;5068254;28;20033;-61
2024/03/01 04:15:04;;;;;;;17.27;7.38;;;;;;;;;;5068697;28;20033;-59
2024/03/01 04:17:30;;;;;;;23.13;8.63;;;;;;;;;;5068706;28;20029;-62
2024/03/01 04:19:56;;;;;;;18.77;7.65;;;;;;;;;;5068690;28;20029;-61
2024/03/01 04:22:22;;;;;;;17.17;6.90;;;;;;;;;;5070454;28;20024;-61
2024/03/01 04:24:49;;;;;;;19.55;7.85;;;;;;;;;;5069770;28;20037;-61
2024/03/01 04:27:15;;;;;;;22.75;8.20;;;;;;;;;;5066239;28;20024;-61
2024/03/01 04:29:41;;;;;;;21.98;9.48;;;;;;;;;;5069117;28;20452;-61
2024/03/01 04:32:10;;;;;;;21.83;8.30;;;;;;;;;;5068374;28;20446;-61
2024/03/01 04:34:36;;;;;;;24.40;9.48;;;;;;;;;;5072611;28;20048;-61
2024/03/01 04:37:03;;;;;;;26.30;9.18;;;;;;;;;;5067347;28;20509;-61
2024/03/01 04:39:28;;;;;;;20.25;7.93;;;;;;;;;;5075081;28;20107;-61
2024/03/01 04:41:55;;;;;;;24.33;8.27;;;;;;;;;;5064041;28;20108;-59
2024/03/01 04:44:21;;;;;;;17.23;6.95;;;;;;;;;;5074504;28;20036;-60
2024/03/01 04:46:47;;;;;;;26.92;8.18;;;;;;;;;;5064552;28;20113;-60
2024/03/01 04:49:13;;;;;;;22.48;7.70;;;;;;;;;;5069796;28;20021;-61
2024/03/01 04:51:39;;;;;;;17.33;8.52;;;;;;;;;;5067227;28;20075;-61
2024/03/01 04:54:05;;;;;;;25.30;10.52;;;;;;;;;;5069652;28;20028;-61
2024/03/01 04:56:31;;;;;;;19.40;8.23;;;;;;;;;;5062686;28;20386;-61
2024/03/01 04:58:57;;;;;;;20.67;8.50;;;;;;;;;;5068284;28;20036;-59
2024/03/01 05:01:23;;;;;;;21.20;8.10;;;;;;;;;;5065652;28;20046;-60
2024/03/01 05:03:50;;;;;;;22.30;8.65;;;;;;;;;;5063508;28;20485;-60
2024/03/01 05:06:16;;;;;;;20.48;8.13;;;;;;;;;;5064513;28;20103;-59
2024/03/01 05:08:42;;;;;;;19.88;8.43;;;;;;;;;;5072867;28;20039;-60
2024/03/01 05:11:08;;;;;;;24.58;8.68;;;;;;;;;;5061697;28;20053;-62
2024/03/01 05:13:34;;;;;;;20.55;8.07;;;;;;;;;;5066849;28;20060;-60
2024/03/01 05:16:00;;;;;;;23.05;8.05;;;;;;;;;;5061824;28;20036;-60
2024/03/01 05:18:26;;;;;;;18.13;8.70;;;;;;;;;;5071751;28;20042;-60
2024/03/01 05:20:55;;;;;;;17.83;7.95;;;;;;;;;;5064459;28;20096;-60
2024/03/01 05:23:24;;;;;;;21.45;8.82;;;;;;;;;;5064343;28;20039;-61
2024/03/01 05:25:51;;;;;;;14.50;8.15;;;;;;;;;;5065483;28;20183;-61
2024/03/01 05:28:17;;;;;;;18.60;7.55;;;;;;;;;;5070244;28;20025;-60
2024/03/01 05:30:45;;;;;;;18.25;7.60;;;;;;;;;;5064307;28;20033;-60
2024/03/01 05:33:12;;;;;;;23.25;8.98;;;;;;;;;;5065745;28;20023;-60
2024/03/01 05:35:38;;;;;;;17.73;7.95;;;;;;;;;;5062923;28;20061;-60
2024/03/01 05:38:04;;;;;;;20.20;8.18;;;;;;;;;;5064206;28;20052;-61
2024/03/01 05:40:30;;;;;;;18.35;7.90;;;;;;;;;;5067335;28;20103;-61
2024/03/01 05:42:56;;;;;;;19.73;8.32;;;;;;;;;;5064252;28;20033;-62
2024/03/01 05:45:22;;;;;;;19.65;7.43;;;;;;;;;;5075186;28;20096;-62
2024/03/01 05:47:48;;;;;;;22.50;7.80;;;;;;;;;;5067446;28;20487;-61
2024/03/01 05:50:14;;;;;;;20.17;8.93;;;;;;;;;;5070218;28;20490;-61
2024/03/01 05:52:42;;;;;;;20.58;8.35;;;;;;;;;;5068514;28;20047;-60
2024/03/01 05:55:08;;;;;;;24.65;7.15;;;;;;;;;;5067829;28;20036;-59
2024/03/01 05:57:35;;;;;;;18.67;6.80;;;;;;;;;;5070751;28;20073;-60
2024/03/01 06:00:09;;;;;;;21.00;8.57;;;;;;;;;;5066945;28;20032;-61
2024/03/01 06:02:35;;;;;;;22.08;9.02;;;;;;;;;;5072065;28;20506;-60
2024/03/01 06:05:01;;;;;;;21.38;9.20;;;;;;;;;;5066114;28;20039;-60
2024/03/01 06:07:27;;;;;;;17.55;8.60;;;;;;;;;;5065882;28;20024;-61
2024/03/01 06:09:53;;;;;;;21.20;8.15;;;;;;;;;;5051395;28;20050;-61
2024/03/01 06:12:19;;;;;;;23.38;8.77;;;;;;;;;;5064230;28;20028;-65
2024/03/01 06:14:45;;;;;;;25.40;8.82;;;;;;;;;;5073519;28;20539;-61
2024/03/01 06:17:11;;;;;;;16.73;8.07;;;;;;;;;;5067904;28;20059;-61
2024/03/01 06:19:37;;;;;;;19.55;7.32;;;;;;;;;;5073498;28;20035;-62
2024/03/01 06:22:03;;;;;;;23.58;7.53;;;;;;;;;;5066049;28;20025;-60
2024/03/01 06:24:29;;;;;;;17.88;7.50;;;;;;;;;;5064076;28;20020;-61
2024/03/01 06:26:55;;;;;;;13.05;6.22;;;;;;;;;;5067901;28;20637;-61
2024/03/01 06:29:21;;;;;;;21.23;7.70;;;;;;;;;;5070484;28;20501;-62
2024/03/01 06:31:47;;;;;;;28.38;7.93;;;;;;;;;;5073429;28;20026;-62
2024/03/01 06:34:13;;;;;;;12.77;5.22;;;;;;;;;;5072970;28;20031;-62
2024/03/01 06:36:39;;;;;;;7.95;3.78;;;;;;;;;;5068544;28;20020;-61
2024/03/01 06:39:06;;;;;;;5.60;3.17;;;;;;;;;;5072061;28;20024;-59
2024/03/01 06:41:32;;;;;;;4.03;1.67;;;;;;;;;;5068543;28;20040;-61
2024/03/01 06:43:58;;;;;;;2.55;1.60;;;;;;;;;;5074802;28;20058;-59
2024/03/01 06:46:24;;;;;;;3.42;1.88;;;;;;;;;;5068752;28;20032;-62
2024/03/01 06:48:50;;;;;;;1.80;1.08;;;;;;;;;;5074980;28;20442;-62
2024/03/01 06:51:16;;;;;;;3.10;1.70;;;;;;;;;;5068737;28;20025;-60
2024/03/01 06:53:42;;;;;;;2.53;0.77;;;;;;;;;;5064654;28;20048;-62
2024/03/01 06:56:10;;;;;;;1.90;1.10;;;;;;;;;;5068274;28;20024;-61
2024/03/01 06:58:36;;;;;;;2.40;1.15;;;;;;;;;;5072441;28;20478;-61
2024/03/01 07:01:05;;;;;;;1.10;0.75;;;;;;;;;;5068890;28;20024;-62
2024/03/01 07:03:31;;;;;;;1.58;0.88;;;;;;;;;;5068062;28;20020;-61
2024/03/01 07:05:57;;;;;;;3.53;1.15;;;;;;;;;;5068741;28;20024;-61
2024/03/01 07:08:23;;;;;;;2.03;0.90;;;;;;;;;;5072224;28;20157;-60
2024/03/01 07:10:50;;;;;;;1.90;1.13;;;;;;;;;;5066586;28;20140;-62
2024/03/01 07:13:16;;;;;;;1.10;0.90;;;;;;;;;;5070410;28;20016;-62
2024/03/01 07:15:42;;;;;;;1.58;1.10;;;;;;;;;;5070660;28;20104;-61
2024/03/01 07:18:08;;;;;;;1.67;1.00;;;;;;;;;;5069134;28;20089;-60
2024/03/01 07:20:34;;;;;;;1.92;1.40;;;;;;;;;;5069608;28;20028;-62
2024/03/01 07:23:00;;;;;;;2.53;1.52;;;;;;;;;;5071750;28;20060;-61
2024/03/01 07:25:26;;;;;;;1.80;1.45;;;;;;;;;;5064217;28;20056;-59
2024/03/01 07:27:52;;;;;;;2.17;1.65;;;;;;;;;;5066470;28;20093;-60
2024/03/01 07:30:18;;;;;;;2.63;1.30;;;;;;;;;;5068163;28;20115;-61
2024/03/01 07:32:44;;;;;;;2.92;1.70;;;;;;;;;;5068650;28;20667;-62
2024/03/01 07:35:10;;;;;;;4.55;1.70;;;;;;;;;;5068436;28;20042;-62
2024/03/01 07:37:36;;;;;;;2.90;1.40;;;;;;;;;;5065404;28;20020;-62
2024/03/01 07:40:04;;;;;;;2.80;1.60;;;;;;;;;;5068607;28;20025;-62
2024/03/01 07:42:30;;;;;;;5.55;1.40;;;;;;;;;;5066390;28;20842;-60
2024/03/01 07:44:56;;;;;;;1.73;1.10;;;;;;;;;;5068688;28;20111;-61
2024/03/01 07:47:29;;;;;;;1.90;1.30;;;;;;;;;;5067668;28;20104;-61
2024/03/01 07:49:55;;;;;;;2.00;1.25;;;;;;;;;;5071052;28;20103;-60
2024/03/01 07:52:21;;;;;;;1.65;1.35;;;;;;;;;;5066063;28;20116;-62
2024/03/01 07:54:47;;;;;;;1.65;1.00;;;;;;;;;;5066952;28;20036;-61
2024/03/01 07:57:14;;;;;;;4.03;1.55;;;;;;;;;;5066756;28;20028;-61
2024/03/01 07:59:40;;;;;;;2.17;1.00;;;;;;;;;;5067318;28;20092;-62
2024/03/01 08:02:08;;;;;;;1.70;1.08;;;;;;;;;;5061396;28;20112;-59
2024/03/01 08:04:34;;;;;;;1.58;1.27;;;;;;;;;;5055943;28;20366;-62
2024/03/01 08:07:01;;;;;;;2.08;1.20;;;;;;;;;;5063242;28;20052;-62
2024/03/01 08:09:32;;;;;;;2.35;1.33;;;;;;;;;;5068182;28;20029;-60
2024/03/01 08:11:58;;;;;;;2.60;1.25;;;;;;;;;;5049189;28;20128;-61
2024/03/01 08:14:27;;;;;;;4.97;1.63;;;;;;;;;;5070585;28;20031;-61
2024/03/01 08:16:54;;;;;;;3.72;1.67;;;;;;;;;;5066851;28;20024;-60
2024/03/01 08:19:21;;;;;;;1.52;1.30;;;;;;;;;;5069378;28;20439;-63
2024/03/01 08:21:47;;;;;;;2.03;1.23;;;;;;;;;;5072133;28;20024;-61
2024/03/01 08:24:18;;;;;;;2.92;1.25;;;;;;;;;;5067471;28;20071;-61
2024/03/01 08:26:44;;;;;;;2.58;1.40;;;;;;;;;;5056852;28;20039;-61
2024/03/01 08:29:10;;;;;;;2.22;1.48;;;;;;;;;;5064139;28;20124;-61
2024/03/01 08:31:36;;;;;;;2.28;1.40;;;;;;;;;;5060369;28;20777;-59
2024/03/01 08:34:09;;;;;;;4.07;1.27;;;;;;;;;;5066646;28;20031;-61
2024/03/01 08:36:37;;;;;;;4.07;2.83;;;;;;;;;;5063171;28;20028;-60
2024/03/01 08:39:10;;;;;;;3.38;1.70;;;;;;;;;;5060954;28;20037;-58
2024/03/01 08:41:36;;;;;;;2.90;1.45;;;;;;;;;;5065372;28;20063;-58
2024/03/01 08:44:02;;;;;;;2.42;1.60;;;;;;;;;;5065675;28;20044;-58
2024/03/01 08:46:30;;;;;;;2.33;1.55;;;;;;;;;;5064801;28;20028;-60
2024/03/01 08:48:56;;;;;;;1.55;1.20;;;;;;;;;;5068308;28;20116;-58
2024/03/01 08:51:22;;;;;;;2.60;1.50;;;;;;;;;;5065065;28;20078;-58
2024/03/01 08:54:05;;;;;;;3.65;1.70;;;;;;;;;;5063419;28;20025;-59
2024/03/01 08:56:35;;;;;;;2.35;1.75;;;;;;;;;;5064813;28;20036;-60
2024/03/01 08:59:02;;;;;;;3.05;1.90;;;;;;;;;;5047215;28;20563;-60
2024/03/01 09:01:45;;;;;;;4.10;1.85;;;;;;;;;;5064497;28;20021;-60
2024/03/01 09:04:37;;;;;;;2.58;1.80;;;;;;;;;;5060072;28;20364;-59
2024/03/01 09:07:13;;;;;;;3.80;1.90;;;;;;;;;;5067945;28;20035;-58
2024/03/01 09:09:39;;;;;;;3.45;1.92;;;;;;;;;;5049547;28;20096;-60
2024/03/01 09:12:09;;;;;;;2.67;1.80;;;;;;;;;;5068821;28;20686;-61
2024/03/01 09:14:35;;;;;;;4.28;1.40;;;;;;;;;;5062410;28;20028;-61
2024/03/01 09:17:01;;;;;;;3.40;1.70;;;;;;;;;;5065327;28;20029;-60
2024/03/01 09:19:31;;;;;;;2.22;1.23;;;;;;;;;;5063400;28;20032;-57
2024/03/01 09:21:57;;;;;;;3.42;1.80;;;;;;;;;;5062301;28;20095;-58
2024/03/01 09:24:24;;;;;;;2.30;1.40;;;;;;;;;;5063477;28;20028;-59
2024/03/01 09:26:50;;;;;;;4.22;1.65;;;;;;;;;;5059669;28;20043;-59
2024/03/01 09:29:36;;;;;;;3.17;1.42;;;;;;;;;;5059816;28;20115;-57
2024/03/01 09:32:03;;;;;;;3.85;1.10;;;;;;;;;;5070827;28;20078;-58
2024/03/01 09:34:31;;;;;;;2.33;1.25;;;;;;;;;;5055805;28;20043;-57
2024/03/01 09:36:58;;;;;;;4.40;2.15;;;;;;;;;;5058301;28;20403;-61
2024/03/01 09:39:24;;;;;;;3.90;2.42;;;;;;;;;;5061279;28;20070;-60
2024/03/01 09:41:58;;;;;;;4.38;2.05;;;;;;;;;;5057284;28;20476;-60
2024/03/01 09:44:40;;;;;;;5.20;2.85;;;;;;;;;;5063619;28;20497;-60
2024/03/01 09:47:12;;;;;;;3.53;1.90;;;;;;;;;;5063863;28;20029;-60
2024/03/01 09:50:05;;;;;;;3.05;2.13;;;;;;;;;;5056480;28;20167;-60
2024/03/01 09:52:38;;;;;;;5.95;2.47;;;;;;;;;;5058073;28;20024;-59
2024/03/01 09:55:16;;;;;;;7.03;2.40;;;;;;;;;;5058512;28;20035;-58
2024/03/01 09:58:00;;;;;;;3.60;2.00;;;;;;;;;;5062304;28;20028;-61
2024/03/01 10:00:31;;;;;;;4.05;2.33;;;;;;;;;;5064383;28;20020;-58
2024/03/01 10:03:16;;;;;;;6.43;2.30;;;;;;;;;;5061137;28;20115;-58
2024/03/01 10:06:00;;;;;;;5.47;2.58;;;;;;;;;;5056285;28;20035;-61
2024/03/01 10:08:29;;;;;;;6.53;2.90;;;;;;;;;;5046321;28;20123;-59
2024/03/01 10:11:24;;;;;;;4.57;2.08;;;;;;;;;;5060668;28;22160;-61
2024/03/01 10:13:59;;;;;;;6.32;2.13;;;;;;;;;;5024910;28;20044;-60
2024/03/01 10:16:31;;;;;;;5.03;2.15;;;;;;;;;;5047298;28;20033;-59
2024/03/01 10:19:02;;;;;;;2.35;0.90;;;;;;;;;;5064481;28;20100;-59
2024/03/01 10:21:35;;;;;;;5.00;1.88;;;;;;;;;;5067105;28;20012;-60
2024/03/01 10:24:10;;;;;;;3.20;1.90;;;;;;;;;;5062752;28;20081;-60
2024/03/01 10:26:40;;;;;;;3.28;1.48;;;;;;;;;;5059421;28;20032;-60
2024/03/01 10:29:06;;;;;;;2.55;1.40;;;;;;;;;;5059373;28;20406;-60
2024/03/01 10:31:52;;;;;;;1.48;1.30;;;;;;;;;;5066789;28;20028;-59
2024/03/01 10:34:24;;;;;;;5.80;1.52;;;;;;;;;;5067720;28;20489;-58
2024/03/01 10:36:54;;;;;;;1.63;1.20;;;;;;;;;;5067906;28;20067;-60
2024/03/01 10:39:23;;;;;;;2.65;1.33;;;;;;;;;;5061424;28;20025;-60
2024/03/01 10:42:01;;;;;;;1.23;0.60;;;;;;;;;;5068269;28;20036;-58
2024/03/01 10:44:37;;;;;;;1.05;0.73;;;;;;;;;;5061993;28;20463;-60
2024/03/01 10:47:13;;;;;;;2.25;1.25;;;;;;;;;;5067953;28;20078;-60
2024/03/01 10:50:00;;;;;;;1.15;0.85;;;;;;;;;;5063602;28;20025;-60
2024/03/01 10:52:30;;;;;;;1.15;0.85;;;;;;;;;;5064270;28;20028;-59
2024/03/01 10:54:56;;;;;;;1.05;0.90;;;;;;;;;;5062706;28;20699;-58
2024/03/01 10:57:23;;;;;;;0.82;0.47;;;;;;;;;;5062444;28;20083;-60
2024/03/01 10:59:56;;;;;;;0.30;0.30;;;;;;;;;;5067954;28;20020;-60
2024/03/01 11:02:27;;;;;;;4.43;0.80;;;;;;;;;;5063053;28;20036;-59
2024/03/01 11:05:03;;;;;;;0.40;0.40;;;;;;;;;;5068703;28;20112;-59
2024/03/01 11:07:38;;;;;;;0.40;0.40;;;;;;;;;;5064175;28;20029;-59
2024/03/01 11:10:20;;;;;;;0.85;0.40;;;;;;;;;;5064025;28;20544;-57
2024/03/01 11:12:51;;;;;;;0.30;0.30;;;;;;;;;;5066520;28;20107;-60
2024/03/01 11:15:19;;;;;;;0.40;0.35;;;;;;;;;;5071758;28;20020;-59
2024/03/01 11:17:48;;;;;;;1.75;0.63;;;;;;;;;;5062355;28;20017;-60
2024/03/01 11:20:17;;;;;;;0.50;0.30;;;;;;;;;;5065572;28;20033;-59
2024/03/01 11:22:47;;;;;;;0.40;0.40;;;;;;;;;;5064735;28;20095;-60
2024/03/01 11:25:19;;;;;;;1.58;0.80;;;;;;;;;;5064922;28;20036;-59
2024/03/01 11:27:56;;;;;;;0.45;0.30;;;;;;;;;;5061402;28;20023;-61
2024/03/01 11:30:26;;;;;;;0.30;0.30;;;;;;;;;;5063636;28;20040;-59
2024/03/01 11:33:00;;;;;;;1.45;0.50;;;;;;;;;;5067683;28;20021;-60
2024/03/01 11:35:33;;;;;;;0.82;0.60;;;;;;;;;;5064108;28;20036;-61
2024/03/01 11:37:58;;;;;;;0.50;0.40;;;;;;;;;;5061095;28;20401;-61
2024/03/01 11:40:33;;;;;;;1.40;0.65;;;;;;;;;;5066409;28;20016;-60
2024/03/01 11:43:07;;;;;;;1.45;0.60;;;;;;;;;;5064039;28;20115;-60
2024/03/01 11:45:36;;;;;;;1.30;1.00;;;;;;;;;;5050229;28;20478;-61
2024/03/01 11:48:21;;;;;;;0.52;0.52;;;;;;;;;;5062696;28;21334;-61
2024/03/01 11:50:59;;;;;;;0.43;0.40;;;;;;;;;;5063565;28;20025;-59
2024/03/01 11:53:44;;;;;;;0.73;0.50;;;;;;;;;;5064933;28;20041;-60
2024/03/01 11:56:20;;;;;;;0.45;0.43;;;;;;;;;;5065109;28;20409;-60
2024/03/01 11:59:06;;;;;;;1.48;0.60;;;;;;;;;;5072269;28;20023;-61
2024/03/01 12:02:01;;;;;;;1.33;0.63;;;;;;;;;;5064916;28;20039;-58
2024/03/01 12:04:45;;;;;;;1.17;0.80;;;;;;;;;;5051875;28;20058;-60
2024/03/01 12:07:31;;;;;;;0.70;0.70;;;;;;;;;;5065978;28;20047;-60
2024/03/01 12:10:19;;;;;;;0.60;0.60;;;;;;;;;;5064901;28;20422;-59
2024/03/01 12:12:49;;;;;;;2.08;0.60;;;;;;;;;;5065982;28;20039;-60
2024/03/01 12:15:20;;;;;;;0.70;0.50;;;;;;;;;;5064393;28;20120;-61
2024/03/01 12:17:54;;;;;;;3.88;1.00;;;;;;;;;;5064801;28;20498;-58
2024/03/01 12:20:20;;;;;;;1.20;1.08;;;;;;;;;;5066910;28;20125;-57
2024/03/01 12:22:58;;;;;;;0.88;0.50;;;;;;;;;;5066233;28;20029;-59
2024/03/01 12:25:26;;;;;;;4.13;1.00;;;;;;;;;;5061867;28;20017;-59
2024/03/01 12:27:58;;;;;;;1.80;0.90;;;;;;;;;;5066136;28;20138;-61
2024/03/01 12:30:28;;;;;;;1.98;0.90;;;;;;;;;;5063373;28;20033;-61
2024/03/01 12:33:06;;;;;;;2.78;0.95;;;;;;;;;;5068655;28;20017;-59
2024/03/01 12:35:52;;;;;;;0.88;0.52;;;;;;;;;;5047844;28;20078;-60
2024/03/01 12:38:22;;;;;;;0.77;0.70;;;;;;;;;;5065860;28;20032;-60
2024/03/01 12:40:51;;;;;;;2.28;1.15;;;;;;;;;;5065256;28;20458;-61
2024/03/01 12:43:27;;;;;;;1.23;0.80;;;;;;;;;;5067557;28;20812;-61
2024/03/01 12:46:03;;;;;;;4.22;1.02;;;;;;;;;;5068943;28;20039;-60
2024/03/01 12:48:38;;;;;;;2.70;0.65;;;;;;;;;;5069980;28;20614;-61
2024/03/01 12:51:05;;;;;;;1.67;0.88;;;;;;;;;;5069383;28;20028;-61
2024/03/01 12:53:40;;;;;;;4.53;0.93;;;;;;;;;;5063566;28;20411;-60
2024/03/01 12:56:27;;;;;;;3.45;0.70;;;;;;;;;;5068093;28;20069;-59
2024/03/01 12:59:03;;;;;;;1.08;0.90;;;;;;;;;;5067541;28;20032;-61
2024/03/01 13:01:49;;;;;;;0.50;0.50;;;;;;;;;;5062797;28;20237;-61
2024/03/01 13:04:15;;;;;;;0.70;0.65;;;;;;;;;;5022873;28;20048;-59
2024/03/01 13:06:42;;;;;;;1.85;0.52;;;;;;;;;;5068242;28;20020;-61
2024/03/01 13:09:19;;;;;;;1.15;0.70;;;;;;;;;;5061289;28;20056;-60
2024/03/01 13:11:46;;;;;;;1.75;0.90;;;;;;;;;;5066510;28;20029;-62
2024/03/01 13:14:15;;;;;;;0.68;0.40;;;;;;;;;;5065963;28;20036;-60
2024/03/01 13:16:42;;;;;;;3.15;0.52;;;;;;;;;;5062193;28;20020;-59
2024/03/01 13:19:08;;;;;;;0.43;0.43;;;;;;;;;;5063444;28;20025;-60
2024/03/01 13:21:56;;;;;;;0.63;0.60;;;;;;;;;;5059244;28;20045;-61
2024/03/01 13:24:41;;;;;;;2.38;0.68;;;;;;;;;;5064122;28;20094;-61
2024/03/01 13:27:16;;;;;;;3.78;0.73;;;;;;;;;;5062832;28;20229;-59
2024/03/01 13:29:43;;;;;;;1.25;0.73;;;;;;;;;;5043039;28;20406;-60
2024/03/01 13:32:17;;;;;;;1.27;0.65;;;;;;;;;;5062060;28;20031;-60
2024/03/01 13:34:47;;;;;;;0.80;0.63;;;;;;;;;;5067600;28;20063;-61
2024/03/01 13:37:22;;;;;;;0.68;0.50;;;;;;;;;;5062120;28;20016;-61
2024/03/01 13:39:52;;;;;;;2.50;0.70;;;;;;;;;;5042537;28;20059;-58
2024/03/01 13:42:18;;;;;;;2.13;0.80;;;;;;;;;;5059974;28;20032;-60
2024/03/01 13:44:45;;;;;;;2.22;0.80;;;;;;;;;;5068177;28;20025;-60
2024/03/01 13:47:17;;;;;;;1.45;0.70;;;;;;;;;;5062425;28;20621;-59
2024/03/01 13:49:47;;;;;;;1.80;0.70;;;;;;;;;;5064704;28;20027;-59
2024/03/01 13:52:13;;;;;;;0.73;0.57;;;;;;;;;;5062861;28;20096;-60
2024/03/01 13:54:39;;;;;;;0.68;0.60;;;;;;;;;;5069003;28;20056;-60
2024/03/01 13:57:06;;;;;;;1.75;0.88;;;;;;;;;;5066973;28;20017;-60
2024/03/01 13:59:32;;;;;;;2.08;0.90;;;;;;;;;;5062753;28;20032;-59
2024/03/01 14:01:58;;;;;;;2.88;0.60;;;;;;;;;;5068639;28;20132;-61
2024/03/01 14:04:27;;;;;;;3.00;0.50;;;;;;;;;;5069501;28;20028;-60
2024/03/01 14:06:53;;;;;;;1.70;0.80;;;;;;;;;;5071565;28;20083;-61
2024/03/01 14:09:19;;;;;;;0.70;0.50;;;;;;;;;;5064147;28;20096;-60
2024/03/01 14:11:45;;;;;;;3.85;2.15;;;;;;;;;;5067353;28;20166;-61
2024/03/01 14:14:11;;;;;;;4.32;1.60;;;;;;;;;;5067021;28;20032;-60
2024/03/01 14:16:38;;;;;;;2.35;1.10;;;;;;;;;;5063530;28;20029;-60
2024/03/01 14:19:05;;;;;;;8.00;2.22;;;;;;;;;;5066747;28;20020;-57
2024/03/01 14:21:31;;;;;;;1.15;0.95;;;;;;;;;;5071096;28;20027;-60
2024/03/01 14:24:01;;;;;;;4.35;0.60;;;;;;;;;;5065631;28;20065;-59
2024/03/01 14:26:28;;;;;;;0.40;0.40;;;;;;;;;;5068979;28;20029;-61
2024/03/01 14:28:55;;;;;;;1.98;0.70;;;;;;;;;;5064312;28;20041;-60
2024/03/01 14:31:21;;;;;;;4.45;0.80;;;;;;;;;;5064348;28;20032;-62
2024/03/01 14:34:00;;;;;;;4.10;1.33;;;;;;;;;;5060310;28;20048;-60
2024/03/01 14:36:29;;;;;;;0.95;0.63;;;;;;;;;;5063110;28;20055;-61
2024/03/01 14:38:55;;;;;;;0.40;0.40;;;;;;;;;;5060473;28;20040;-62
2024/03/01 14:41:23;;;;;;;3.50;0.65;;;;;;;;;;5063396;28;20087;-59
2024/03/01 14:43:49;;;;;;;1.02;0.50;;;;;;;;;;5063393;28;20042;-61
2024/03/01 14:46:28;;;;;;;1.35;0.40;;;;;;;;;;5066263;28;20115;-61